sensor_id;sensor_type;location;lat;lon;timestamp;temperature;humidity
63931;DHT22;50111;48.114;-2.066;2023-03-01T00:02:12;0.50;99.90
63931;DHT22;50111;48.114;-2.066;2023-03-01T00:04:37;0.60;99.90
63931;DHT22;50111;48.114;-2.066;2023-03-01T00:07:02;0.50;99.90
63931;DHT22;50111;48.114;-2.066;2023-03-01T00:09:28;0.40;99.90
63931;DHT22;50111;48.114;-2.066;2023-03-01T00:11:53;0.40;99.90
63931;DHT22;50111;48.114;-2.066;2023-03-01T00:14:19;0.40;99.90
63931;DHT22;50111;48.114;-2.066;2023-03-01T00:16:44;0.30;99.90
63931;DHT22;50111;48.114;-2.066;2023-03-01T00:19:15;0.30;99.90
63931;DHT22;50111;48.114;-2.066;2023-03-01T00:21:40;0.30;99.90
63931;DHT22;50111;48.114;-2.066;2023-03-01T00:24:06;0.30;99.90
63931;DHT22;50111;48.114;-2.066;2023-03-01T00:26:32;0.30;99.90
63931;DHT22;50111;48.114;-2.066;2023-03-01T00:28:58;0.20;99.90
63931;DHT22;50111;48.114;-2.066;2023-03-01T00:31:24;0.20;99.90
63931;DHT22;50111;48.114;-2.066;2023-03-01T00:33:54;0.20;99.90
63931;DHT22;50111;48.114;-2.066;2023-03-01T00:36:23;0.10;99.90
63931;DHT22;50111;48.114;-2.066;2023-03-01T00:38:48;0.10;99.90
63931;DHT22;50111;48.114;-2.066;2023-03-01T00:41:15;0.10;99.90
63931;DHT22;50111;48.114;-2.066;2023-03-01T00:43:41;0.10;99.90
63931;DHT22;50111;48.114;-2.066;2023-03-01T00:46:08;0.00;99.90
63931;DHT22;50111;48.114;-2.066;2023-03-01T00:48:34;0.00;99.90
63931;DHT22;50111;48.114;-2.066;2023-03-01T00:53:34;-0.10;99.90
63931;DHT22;50111;48.114;-2.066;2023-03-01T00:56:00;-0.10;99.90
63931;DHT22;50111;48.114;-2.066;2023-03-01T00:58:26;0.00;99.90
63931;DHT22;50111;48.114;-2.066;2023-03-01T01:00:51;-0.10;99.90
63931;DHT22;50111;48.114;-2.066;2023-03-01T01:03:18;-0.10;99.90
63931;DHT22;50111;48.114;-2.066;2023-03-01T01:05:44;-0.20;99.90
63931;DHT22;50111;48.114;-2.066;2023-03-01T01:08:09;-0.20;99.90
63931;DHT22;50111;48.114;-2.066;2023-03-01T01:10:35;-0.20;99.90
63931;DHT22;50111;48.114;-2.066;2023-03-01T01:13:00;-0.10;99.90
63931;DHT22;50111;48.114;-2.066;2023-03-01T01:15:26;-0.10;99.90
63931;DHT22;50111;48.114;-2.066;2023-03-01T01:17:52;-0.10;99.90
63931;DHT22;50111;48.114;-2.066;2023-03-01T01:20:17;-0.20;99.90
63931;DHT22;50111;48.114;-2.066;2023-03-01T01:22:43;-0.20;99.90
63931;DHT22;50111;48.114;-2.066;2023-03-01T01:25:08;-0.20;99.90
63931;DHT22;50111;48.114;-2.066;2023-03-01T01:27:34;-0.30;99.90
63931;DHT22;50111;48.114;-2.066;2023-03-01T01:29:59;-0.30;99.90
63931;DHT22;50111;48.114;-2.066;2023-03-01T01:32:25;-0.40;99.90
63931;DHT22;50111;48.114;-2.066;2023-03-01T01:34:51;-0.40;99.90
63931;DHT22;50111;48.114;-2.066;2023-03-01T01:37:16;-0.40;99.90
63931;DHT22;50111;48.114;-2.066;2023-03-01T01:39:42;-0.40;99.90
63931;DHT22;50111;48.114;-2.066;2023-03-01T01:42:13;-0.50;99.90
63931;DHT22;50111;48.114;-2.066;2023-03-01T01:44:42;-0.50;99.90
63931;DHT22;50111;48.114;-2.066;2023-03-01T01:47:11;-0.50;99.90
63931;DHT22;50111;48.114;-2.066;2023-03-01T01:49:47;-0.50;99.90
63931;DHT22;50111;48.114;-2.066;2023-03-01T01:52:21;-0.50;99.90
63931;DHT22;50111;48.114;-2.066;2023-03-01T01:54:57;-0.40;99.90
63931;DHT22;50111;48.114;-2.066;2023-03-01T01:57:26;-0.50;99.90
63931;DHT22;50111;48.114;-2.066;2023-03-01T01:59:53;-0.50;99.90
63931;DHT22;50111;48.114;-2.066;2023-03-01T02:02:20;-0.60;99.90
63931;DHT22;50111;48.114;-2.066;2023-03-01T02:04:46;-0.60;99.90
63931;DHT22;50111;48.114;-2.066;2023-03-01T02:09:38;-0.60;99.90
63931;DHT22;50111;48.114;-2.066;2023-03-01T02:12:03;-0.60;99.90
63931;DHT22;50111;48.114;-2.066;2023-03-01T02:14:29;-0.60;99.90
63931;DHT22;50111;48.114;-2.066;2023-03-01T02:16:55;-0.60;99.90
63931;DHT22;50111;48.114;-2.066;2023-03-01T02:19:41;-0.60;99.90
63931;DHT22;50111;48.114;-2.066;2023-03-01T02:27:08;-0.70;99.90
63931;DHT22;50111;48.114;-2.066;2023-03-01T02:29:34;-0.80;99.90
63931;DHT22;50111;48.114;-2.066;2023-03-01T02:32:00;-0.80;99.90
63931;DHT22;50111;48.114;-2.066;2023-03-01T02:34:27;-0.70;99.90
63931;DHT22;50111;48.114;-2.066;2023-03-01T02:37:00;-0.70;99.90
63931;DHT22;50111;48.114;-2.066;2023-03-01T02:39:27;-0.80;99.90
63931;DHT22;50111;48.114;-2.066;2023-03-01T02:41:54;-0.80;99.90
63931;DHT22;50111;48.114;-2.066;2023-03-01T02:44:21;-0.90;99.90
63931;DHT22;50111;48.114;-2.066;2023-03-01T02:46:48;-0.70;99.90
63931;DHT22;50111;48.114;-2.066;2023-03-01T02:51:52;-0.90;99.90
63931;DHT22;50111;48.114;-2.066;2023-03-01T02:56:45;-0.70;99.90
63931;DHT22;50111;48.114;-2.066;2023-03-01T02:59:14;-0.80;99.90
63931;DHT22;50111;48.114;-2.066;2023-03-01T03:01:40;-0.60;99.90
63931;DHT22;50111;48.114;-2.066;2023-03-01T03:04:08;-0.70;99.90
63931;DHT22;50111;48.114;-2.066;2023-03-01T03:06:35;-0.70;99.90
63931;DHT22;50111;48.114;-2.066;2023-03-01T03:09:01;-0.70;99.90
63931;DHT22;50111;48.114;-2.066;2023-03-01T03:11:26;-0.80;99.90
63931;DHT22;50111;48.114;-2.066;2023-03-01T03:13:52;-0.70;99.90
63931;DHT22;50111;48.114;-2.066;2023-03-01T03:16:18;-0.70;99.90
63931;DHT22;50111;48.114;-2.066;2023-03-01T03:18:43;-0.90;99.90
63931;DHT22;50111;48.114;-2.066;2023-03-01T03:21:10;-0.90;99.90
63931;DHT22;50111;48.114;-2.066;2023-03-01T03:23:35;-1.20;99.90
63931;DHT22;50111;48.114;-2.066;2023-03-01T03:50:26;-1.00;99.90
63931;DHT22;50111;48.114;-2.066;2023-03-01T03:52:51;-1.00;99.90
63931;DHT22;50111;48.114;-2.066;2023-03-01T03:55:17;-1.00;99.90
63931;DHT22;50111;48.114;-2.066;2023-03-01T03:57:45;-1.10;99.90
63931;DHT22;50111;48.114;-2.066;2023-03-01T04:00:14;-0.80;99.90
63931;DHT22;50111;48.114;-2.066;2023-03-01T04:02:43;-1.20;99.90
63931;DHT22;50111;48.114;-2.066;2023-03-01T04:05:09;-1.00;99.90
63931;DHT22;50111;48.114;-2.066;2023-03-01T04:07:35;-1.00;99.90
63931;DHT22;50111;48.114;-2.066;2023-03-01T04:10:07;-0.80;99.90
63931;DHT22;50111;48.114;-2.066;2023-03-01T04:12:34;-1.10;99.90
63931;DHT22;50111;48.114;-2.066;2023-03-01T04:15:00;-0.90;99.90
63931;DHT22;50111;48.114;-2.066;2023-03-01T04:17:26;-1.00;99.90
63931;DHT22;50111;48.114;-2.066;2023-03-01T04:19:51;-0.80;99.90
63931;DHT22;50111;48.114;-2.066;2023-03-01T04:22:17;-1.00;99.90
63931;DHT22;50111;48.114;-2.066;2023-03-01T04:24:44;-1.20;99.90
63931;DHT22;50111;48.114;-2.066;2023-03-01T04:27:09;-0.90;99.90
63931;DHT22;50111;48.114;-2.066;2023-03-01T04:29:35;-1.10;99.90
63931;DHT22;50111;48.114;-2.066;2023-03-01T04:32:00;-1.10;99.90
63931;DHT22;50111;48.114;-2.066;2023-03-01T04:34:26;-0.90;99.90
63931;DHT22;50111;48.114;-2.066;2023-03-01T04:36:54;-1.10;99.90
63931;DHT22;50111;48.114;-2.066;2023-03-01T04:39:20;-1.00;99.90
63931;DHT22;50111;48.114;-2.066;2023-03-01T04:41:46;-1.10;99.90
63931;DHT22;50111;48.114;-2.066;2023-03-01T04:44:11;-1.20;99.90
63931;DHT22;50111;48.114;-2.066;2023-03-01T04:46:38;-1.00;99.90
63931;DHT22;50111;48.114;-2.066;2023-03-01T04:49:03;-1.00;99.90
63931;DHT22;50111;48.114;-2.066;2023-03-01T04:51:29;-1.00;99.90
63931;DHT22;50111;48.114;-2.066;2023-03-01T04:53:54;-1.20;99.90
63931;DHT22;50111;48.114;-2.066;2023-03-01T04:56:20;-0.90;99.90
63931;DHT22;50111;48.114;-2.066;2023-03-01T04:58:48;-1.10;99.90
63931;DHT22;50111;48.114;-2.066;2023-03-01T05:01:15;-0.80;99.90
63931;DHT22;50111;48.114;-2.066;2023-03-01T05:03:42;-1.20;99.90
63931;DHT22;50111;48.114;-2.066;2023-03-01T05:06:08;-1.20;99.90
63931;DHT22;50111;48.114;-2.066;2023-03-01T05:08:33;-1.10;99.90
63931;DHT22;50111;48.114;-2.066;2023-03-01T05:11:02;-1.10;99.90
63931;DHT22;50111;48.114;-2.066;2023-03-01T05:13:28;-1.20;99.90
63931;DHT22;50111;48.114;-2.066;2023-03-01T05:15:55;-0.90;99.90
63931;DHT22;50111;48.114;-2.066;2023-03-01T05:18:21;-0.90;99.90
63931;DHT22;50111;48.114;-2.066;2023-03-01T05:20:51;-1.20;99.90
63931;DHT22;50111;48.114;-2.066;2023-03-01T05:23:17;-1.30;99.90
63931;DHT22;50111;48.114;-2.066;2023-03-01T05:25:43;-1.10;99.90
63931;DHT22;50111;48.114;-2.066;2023-03-01T05:28:13;-1.20;99.90
63931;DHT22;50111;48.114;-2.066;2023-03-01T05:30:39;-1.20;99.90
63931;DHT22;50111;48.114;-2.066;2023-03-01T05:33:05;-0.90;99.90
63931;DHT22;50111;48.114;-2.066;2023-03-01T05:35:32;-1.20;99.90
63931;DHT22;50111;48.114;-2.066;2023-03-01T05:37:58;-1.00;99.90
63931;DHT22;50111;48.114;-2.066;2023-03-01T05:40:23;-0.90;99.90
63931;DHT22;50111;48.114;-2.066;2023-03-01T05:42:51;-1.20;99.90
63931;DHT22;50111;48.114;-2.066;2023-03-01T05:45:17;-1.10;99.90
63931;DHT22;50111;48.114;-2.066;2023-03-01T05:47:43;-1.00;99.90
63931;DHT22;50111;48.114;-2.066;2023-03-01T05:50:13;-0.90;99.90
63931;DHT22;50111;48.114;-2.066;2023-03-01T05:52:39;-1.00;99.90
63931;DHT22;50111;48.114;-2.066;2023-03-01T05:55:05;-0.70;99.90
63931;DHT22;50111;48.114;-2.066;2023-03-01T05:57:31;-1.10;99.90
63931;DHT22;50111;48.114;-2.066;2023-03-01T05:59:56;-0.80;99.90
63931;DHT22;50111;48.114;-2.066;2023-03-01T06:02:22;-1.00;99.90
63931;DHT22;50111;48.114;-2.066;2023-03-01T06:04:47;-1.10;99.90
63931;DHT22;50111;48.114;-2.066;2023-03-01T06:07:13;-1.10;99.90
63931;DHT22;50111;48.114;-2.066;2023-03-01T06:09:38;-1.00;99.90
63931;DHT22;50111;48.114;-2.066;2023-03-01T06:12:04;-1.20;99.90
63931;DHT22;50111;48.114;-2.066;2023-03-01T06:14:30;-1.30;99.90
63931;DHT22;50111;48.114;-2.066;2023-03-01T06:16:56;-1.30;99.90
63931;DHT22;50111;48.114;-2.066;2023-03-01T06:19:22;-1.20;99.90
63931;DHT22;50111;48.114;-2.066;2023-03-01T06:21:47;-1.10;99.90
63931;DHT22;50111;48.114;-2.066;2023-03-01T06:24:13;-1.30;99.90
63931;DHT22;50111;48.114;-2.066;2023-03-01T06:26:38;-1.30;99.90
63931;DHT22;50111;48.114;-2.066;2023-03-01T06:29:04;-1.30;99.90
63931;DHT22;50111;48.114;-2.066;2023-03-01T06:31:29;-1.30;99.90
63931;DHT22;50111;48.114;-2.066;2023-03-01T06:33:55;-1.30;99.90
63931;DHT22;50111;48.114;-2.066;2023-03-01T06:36:20;-1.10;99.90
63931;DHT22;50111;48.114;-2.066;2023-03-01T06:38:47;-1.00;99.90
63931;DHT22;50111;48.114;-2.066;2023-03-01T06:41:12;-1.10;99.90
63931;DHT22;50111;48.114;-2.066;2023-03-01T06:43:38;-1.10;99.90
63931;DHT22;50111;48.114;-2.066;2023-03-01T06:46:04;-1.30;99.90
63931;DHT22;50111;48.114;-2.066;2023-03-01T06:48:30;-1.40;99.90
63931;DHT22;50111;48.114;-2.066;2023-03-01T06:50:57;-1.20;99.90
63931;DHT22;50111;48.114;-2.066;2023-03-01T06:53:23;-1.30;99.90
63931;DHT22;50111;48.114;-2.066;2023-03-01T06:55:53;-1.40;99.90
63931;DHT22;50111;48.114;-2.066;2023-03-01T06:58:18;-1.30;99.90
63931;DHT22;50111;48.114;-2.066;2023-03-01T07:00:44;-1.00;99.90
63931;DHT22;50111;48.114;-2.066;2023-03-01T07:03:09;-1.20;99.90
63931;DHT22;50111;48.114;-2.066;2023-03-01T07:05:35;-1.10;99.90
63931;DHT22;50111;48.114;-2.066;2023-03-01T07:08:00;-1.00;99.90
63931;DHT22;50111;48.114;-2.066;2023-03-01T07:10:26;-1.20;99.90
63931;DHT22;50111;48.114;-2.066;2023-03-01T07:12:55;-1.10;99.90
63931;DHT22;50111;48.114;-2.066;2023-03-01T07:15:21;-1.20;99.90
63931;DHT22;50111;48.114;-2.066;2023-03-01T07:17:46;-0.90;99.90
63931;DHT22;50111;48.114;-2.066;2023-03-01T07:20:15;-0.80;99.90
63931;DHT22;50111;48.114;-2.066;2023-03-01T07:22:41;-1.20;99.90
63931;DHT22;50111;48.114;-2.066;2023-03-01T07:25:07;-1.00;99.90
63931;DHT22;50111;48.114;-2.066;2023-03-01T07:27:33;-1.20;99.90
63931;DHT22;50111;48.114;-2.066;2023-03-01T07:29:58;-0.90;99.90
63931;DHT22;50111;48.114;-2.066;2023-03-01T07:32:24;-1.10;99.90
63931;DHT22;50111;48.114;-2.066;2023-03-01T07:34:50;-0.90;99.90
63931;DHT22;50111;48.114;-2.066;2023-03-01T07:37:16;-0.70;99.90
63931;DHT22;50111;48.114;-2.066;2023-03-01T07:39:42;-0.80;99.90
63931;DHT22;50111;48.114;-2.066;2023-03-01T07:42:08;-0.80;99.90
63931;DHT22;50111;48.114;-2.066;2023-03-01T07:44:33;-0.70;99.90
63931;DHT22;50111;48.114;-2.066;2023-03-01T07:47:00;-0.80;99.90
63931;DHT22;50111;48.114;-2.066;2023-03-01T07:49:25;-0.60;99.90
63931;DHT22;50111;48.114;-2.066;2023-03-01T07:51:52;-0.70;99.90
63931;DHT22;50111;48.114;-2.066;2023-03-01T07:54:17;-0.50;99.90
63931;DHT22;50111;48.114;-2.066;2023-03-01T07:56:43;-0.40;99.90
63931;DHT22;50111;48.114;-2.066;2023-03-01T07:59:09;-0.70;99.90
63931;DHT22;50111;48.114;-2.066;2023-03-01T08:01:34;-0.50;99.90
63931;DHT22;50111;48.114;-2.066;2023-03-01T08:04:00;-0.50;99.90
63931;DHT22;50111;48.114;-2.066;2023-03-01T08:06:27;-0.40;99.90
63931;DHT22;50111;48.114;-2.066;2023-03-01T08:08:53;0.00;99.90
63931;DHT22;50111;48.114;-2.066;2023-03-01T08:11:23;0.00;99.90
63931;DHT22;50111;48.114;-2.066;2023-03-01T08:13:49;0.00;99.90
63931;DHT22;50111;48.114;-2.066;2023-03-01T08:16:14;0.10;99.90
63931;DHT22;50111;48.114;-2.066;2023-03-01T08:18:42;0.10;99.90
63931;DHT22;50111;48.114;-2.066;2023-03-01T08:21:11;0.10;99.90
63931;DHT22;50111;48.114;-2.066;2023-03-01T08:23:37;0.30;99.90
63931;DHT22;50111;48.114;-2.066;2023-03-01T08:26:13;0.40;99.90
63931;DHT22;50111;48.114;-2.066;2023-03-01T08:28:38;0.40;99.90
63931;DHT22;50111;48.114;-2.066;2023-03-01T08:31:14;0.40;99.90
63931;DHT22;50111;48.114;-2.066;2023-03-01T08:33:40;0.50;99.90
63931;DHT22;50111;48.114;-2.066;2023-03-01T08:36:05;0.70;99.90
63931;DHT22;50111;48.114;-2.066;2023-03-01T08:38:32;0.80;99.90
63931;DHT22;50111;48.114;-2.066;2023-03-01T08:41:01;1.60;99.90
63931;DHT22;50111;48.114;-2.066;2023-03-01T08:43:27;5.00;99.90
63931;DHT22;50111;48.114;-2.066;2023-03-01T08:45:53;6.30;99.90
63931;DHT22;50111;48.114;-2.066;2023-03-01T08:48:18;6.90;99.90
63931;DHT22;50111;48.114;-2.066;2023-03-01T08:50:44;7.20;99.90
63931;DHT22;50111;48.114;-2.066;2023-03-01T08:53:09;6.80;99.90
63931;DHT22;50111;48.114;-2.066;2023-03-01T08:55:35;7.50;99.90
63931;DHT22;50111;48.114;-2.066;2023-03-01T08:58:00;7.60;99.90
63931;DHT22;50111;48.114;-2.066;2023-03-01T09:00:26;8.30;99.90
63931;DHT22;50111;48.114;-2.066;2023-03-01T09:02:51;8.20;99.90
63931;DHT22;50111;48.114;-2.066;2023-03-01T09:05:17;8.80;99.90
63931;DHT22;50111;48.114;-2.066;2023-03-01T09:07:42;8.20;99.60
63931;DHT22;50111;48.114;-2.066;2023-03-01T09:10:08;8.20;99.30
63931;DHT22;50111;48.114;-2.066;2023-03-01T09:12:34;8.70;98.40
63931;DHT22;50111;48.114;-2.066;2023-03-01T09:14:59;9.00;98.30
63931;DHT22;50111;48.114;-2.066;2023-03-01T09:17:25;9.90;97.50
